Time,TemperatureF,DewpointF,PressureIn,WindDirection,WindDirectionDegrees,WindSpeedMPH,WindSpeedGustMPH,Humidity,HourlyPrecipIn,Conditions,Clouds,dailyrainin,SolarRadiationWatts/m^2,SoftwareType,DateUTC
2013-07-20 00:07:00,73.1,40.0,29.84,SSW,200,0.0,-999.0,30,-99.99,,,0.00,0,weatherlink.com 1.10,2013-07-20 06:07:00,
2013-07-20 00:22:00,74.0,37.0,29.84,NNE,23,8.0,-999.0,26,-99.99,,,0.00,0,weatherlink.com 1.10,2013-07-20 06:22:00,
2013-07-20 00:37:00,74.4,39.0,29.84,WNW,289,0.0,-999.0,28,-99.99,,,0.00,0,weatherlink.com 1.10,2013-07-20 06:37:00,
2013-07-20 00:52:00,73.2,39.0,29.84,WNW,286,0.0,-999.0,29,-99.99,,,0.00,0,weatherlink.com 1.10,2013-07-20 06:52:00,
2013-07-20 01:07:00,72.6,39.0,29.84,WNW,286,0.0,-999.0,29,-99.99,,,0.00,0,weatherlink.com 1.10,2013-07-20 07:07:00,
2013-07-20 01:22:00,72.7,38.0,29.84,WNW,292,0.0,-999.0,28,-99.99,,,0.00,0,weatherlink.com 1.10,2013-07-20 07:22:00,
2013-07-20 01:37:00,72.6,37.0,29.84,WNW,292,0.0,-999.0,27,-99.99,,,0.00,0,weatherlink.com 1.10,2013-07-20 07:37:00,
2013-07-20 01:52:00,71.8,37.0,29.84,West,266,0.0,-999.0,28,-99.99,,,0.00,0,weatherlink.com 1.10,2013-07-20 07:52:00,
2013-07-20 02:07:00,71.6,38.0,29.84,West,265,0.0,-999.0,29,-99.99,,,0.00,0,weatherlink.com 1.10,2013-07-20 08:07:00,
2013-07-20 02:22:00,71.3,38.0,29.84,West,265,0.0,-999.0,30,-99.99,,,0.00,0,weatherlink.com 1.10,2013-07-20 08:22:00,
2013-07-20 02:37:00,69.5,38.0,29.84,West,267,0.0,-999.0,32,-99.99,,,0.00,0,weatherlink.com 1.10,2013-07-20 08:37:00,
2013-07-20 02:52:00,68.5,39.0,29.84,West,269,0.0,-999.0,34,-99.99,,,0.00,0,weatherlink.com 1.10,2013-07-20 08:52:00,
2013-07-20 03:07:00,67.9,39.0,29.84,West,270,0.0,-999.0,35,-99.99,,,0.00,0,weatherlink.com 1.10,2013-07-20 09:07:00,
2013-07-20 03:22:00,66.7,39.0,29.84,West,271,0.0,-999.0,37,-99.99,,,0.00,0,weatherlink.com 1.10,2013-07-20 09:22:00,
2013-07-20 03:37:00,66.4,38.0,29.84,West,271,0.0,-999.0,35,-99.99,,,0.00,0,weatherlink.com 1.10,2013-07-20 09:37:00,
2013-07-20 03:52:00,66.2,38.0,29.84,West,271,0.0,-999.0,36,-99.99,,,0.00,0,weatherlink.com 1.10,2013-07-20 09:52:00,
2013-07-20 04:07:00,66.1,36.0,29.84,West,271,0.0,-999.0,33,-99.99,,,0.00,0,weatherlink.com 1.10,2013-07-20 10:07:00,
2013-07-20 04:22:00,66.7,37.0,29.84,West,271,0.0,-999.0,33,-99.99,,,0.00,0,weatherlink.com 1.10,2013-07-20 10:22:00,
2013-07-20 04:37:00,66.9,35.0,29.84,West,271,0.0,-999.0,31,-99.99,,,0.00,0,weatherlink.com 1.10,2013-07-20 10:37:00,
2013-07-20 04:52:00,67.4,35.0,29.85,West,271,0.0,-999.0,30,-99.99,,,0.00,0,weatherlink.com 1.10,2013-07-20 10:52:00,
2013-07-20 05:07:00,67.9,34.0,29.85,West,271,0.0,-999.0,29,-99.99,,,0.00,0,weatherlink.com 1.10,2013-07-20 11:07:00,
2013-07-20 05:22:00,68.0,34.0,29.85,West,271,0.0,-999.0,28,-99.99,,,0.00,0,weatherlink.com 1.10,2013-07-20 11:22:00,
2013-07-20 05:37:00,66.7,34.0,29.85,NW,318,0.0,-999.0,30,-99.99,,,0.00,0,weatherlink.com 1.10,2013-07-20 11:37:00,
2013-07-20 05:52:00,65.2,37.0,29.85,NNW,329,0.0,-999.0,35,-99.99,,,0.00,0,weatherlink.com 1.10,2013-07-20 11:52:00,
2013-07-20 06:07:00,62.3,36.0,29.85,NNE,21,2.0,-999.0,38,-99.99,,,0.00,12,weatherlink.com 1.10,2013-07-20 12:07:00,
2013-07-20 06:22:00,61.3,37.0,29.85,North,9,4.0,-999.0,41,-99.99,,,0.00,23,weatherlink.com 1.10,2013-07-20 12:22:00,
2013-07-20 06:37:00,61.6,39.0,29.85,NNE,19,6.0,-999.0,44,-99.99,,,0.00,47,weatherlink.com 1.10,2013-07-20 12:37:00,
2013-07-20 06:52:00,63.2,41.0,29.85,North,355,3.0,-999.0,44,-99.99,,,0.00,88,weatherlink.com 1.10,2013-07-20 12:52:00,
2013-07-20 07:07:00,64.0,41.0,29.85,North,5,0.0,-999.0,43,-99.99,,,0.00,137,weatherlink.com 1.10,2013-07-20 13:07:00,
2013-07-20 07:23:00,64.6,42.0,29.86,North,5,0.0,-999.0,44,-99.99,,,0.00,188,weatherlink.com 1.10,2013-07-20 13:23:00,
2013-07-20 07:38:00,66.3,42.0,29.85,North,5,0.0,-999.0,42,-99.99,,,0.00,234,weatherlink.com 1.10,2013-07-20 13:38:00,
2013-07-20 07:53:00,68.1,42.0,29.86,North,355,0.0,-999.0,39,-99.99,,,0.00,278,weatherlink.com 1.10,2013-07-20 13:53:00,
2013-07-20 08:08:00,69.6,45.0,29.86,NNE,15,1.0,-999.0,42,-99.99,,,0.00,325,weatherlink.com 1.10,2013-07-20 14:08:00,
2013-07-20 08:24:00,70.5,44.0,29.86,NNE,18,2.0,-999.0,39,-99.99,,,0.00,367,weatherlink.com 1.10,2013-07-20 14:24:00,
2013-07-20 08:38:00,71.7,43.0,29.87,NW,317,0.0,-999.0,35,-99.99,,,0.00,397,weatherlink.com 1.10,2013-07-20 14:38:00,
2013-07-20 08:53:00,73.3,44.0,29.87,NW,312,0.0,-999.0,35,-99.99,,,0.00,439,weatherlink.com 1.10,2013-07-20 14:53:00,
2013-07-20 09:08:00,73.8,40.0,29.87,NE,44,0.0,-999.0,30,-99.99,,,0.00,487,weatherlink.com 1.10,2013-07-20 15:08:00,
2013-07-20 09:23:00,75.0,41.0,29.86,North,355,5.0,-999.0,30,-99.99,,,0.00,529,weatherlink.com 1.10,2013-07-20 15:23:00,
2013-07-20 09:38:00,75.8,41.0,29.86,NNE,27,4.0,-999.0,29,-99.99,,,0.00,585,weatherlink.com 1.10,2013-07-20 15:38:00,
2013-07-20 09:53:00,76.6,43.0,29.85,NNE,32,0.0,-999.0,30,-99.99,,,0.00,615,weatherlink.com 1.10,2013-07-20 15:53:00,
2013-07-20 10:08:00,77.6,42.0,29.85,NNE,33,0.0,-999.0,28,-99.99,,,0.00,668,weatherlink.com 1.10,2013-07-20 16:08:00,
2013-07-20 10:23:00,78.7,40.0,29.84,NW,325,0.0,-999.0,25,-99.99,,,0.00,710,weatherlink.com 1.10,2013-07-20 16:23:00,
2013-07-20 10:38:00,79.5,40.0,29.84,NE,40,2.0,-999.0,24,-99.99,,,0.00,742,weatherlink.com 1.10,2013-07-20 16:38:00,
2013-07-20 10:53:00,80.6,41.0,29.83,North,355,0.0,-999.0,24,-99.99,,,0.00,775,weatherlink.com 1.10,2013-07-20 16:53:00,
2013-07-20 11:09:00,80.8,40.0,29.83,NE,56,6.0,-999.0,23,-99.99,,,0.00,802,weatherlink.com 1.10,2013-07-20 17:09:00,
2013-07-20 11:24:00,81.3,41.0,29.82,North,5,2.0,-999.0,24,-99.99,,,0.00,826,weatherlink.com 1.10,2013-07-20 17:24:00,
2013-07-20 11:39:00,82.4,41.0,29.82,NNE,30,0.0,-999.0,23,-99.99,,,0.00,856,weatherlink.com 1.10,2013-07-20 17:39:00,
2013-07-20 11:54:00,83.6,40.0,29.81,NNE,25,6.0,-999.0,21,-99.99,,,0.00,879,weatherlink.com 1.10,2013-07-20 17:54:00,
2013-07-20 12:09:00,83.9,40.0,29.80,NE,46,0.0,-999.0,21,-99.99,,,0.00,896,weatherlink.com 1.10,2013-07-20 18:09:00,
2013-07-20 12:24:00,83.4,40.0,29.79,SE,131,0.0,-999.0,21,-99.99,,,0.00,912,weatherlink.com 1.10,2013-07-20 18:24:00,
2013-07-20 12:39:00,84.5,40.0,29.78,ESE,105,5.0,-999.0,21,-99.99,,,0.00,925,weatherlink.com 1.10,2013-07-20 18:39:00,
2013-07-20 12:54:00,86.0,38.0,29.77,NE,42,0.0,-999.0,18,-99.99,,,0.00,932,weatherlink.com 1.10,2013-07-20 18:54:00,
2013-07-20 13:09:00,87.7,41.0,29.77,North,360,0.0,-999.0,19,-99.99,,,0.00,937,weatherlink.com 1.10,2013-07-20 19:09:00,
2013-07-20 13:24:00,88.2,41.0,29.75,North,355,3.0,-999.0,19,-99.99,,,0.00,935,weatherlink.com 1.10,2013-07-20 19:24:00,
2013-07-20 13:39:00,88.1,40.0,29.76,ESE,108,0.0,-999.0,18,-99.99,,,0.00,933,weatherlink.com 1.10,2013-07-20 19:39:00,
2013-07-20 14:09:00,89.3,41.0,29.74,ENE,63,0.0,-999.0,18,-99.99,,,0.00,919,weatherlink.com 1.10,2013-07-20 20:09:00,
2013-07-20 14:24:00,89.6,39.0,29.73,NE,40,0.0,-999.0,17,-99.99,,,0.00,911,weatherlink.com 1.10,2013-07-20 20:24:00,
2013-07-20 14:39:00,89.8,39.0,29.73,NE,34,0.0,-999.0,17,-99.99,,,0.00,893,weatherlink.com 1.10,2013-07-20 20:39:00,
2013-07-20 14:54:00,90.4,38.0,29.72,North,5,0.0,-999.0,16,-99.99,,,0.00,879,weatherlink.com 1.10,2013-07-20 20:54:00,
2013-07-20 15:24:00,91.9,30.0,29.71,NNW,338,1.0,-999.0,11,-99.99,,,0.00,831,weatherlink.com 1.10,2013-07-20 21:24:00,
2013-07-20 15:55:00,93.7,32.0,29.70,NNW,338,3.0,-999.0,11,-99.99,,,0.00,768,weatherlink.com 1.10,2013-07-20 21:55:00,
2013-07-20 16:25:00,92.3,33.0,29.69,NW,313,0.0,-999.0,12,-99.99,,,0.00,705,weatherlink.com 1.10,2013-07-20 22:25:00,
2013-07-20 16:40:00,92.8,33.0,29.68,NW,320,5.0,-999.0,12,-99.99,,,0.00,668,weatherlink.com 1.10,2013-07-20 22:40:00,
2013-07-20 16:55:00,93.1,31.0,29.68,NNW,341,5.0,-999.0,11,-99.99,,,0.00,624,weatherlink.com 1.10,2013-07-20 22:55:00,
2013-07-20 17:10:00,93.6,34.0,29.67,NW,315,5.0,-999.0,12,-99.99,,,0.00,582,weatherlink.com 1.10,2013-07-20 23:10:00,
2013-07-20 17:25:00,93.5,34.0,29.67,NW,325,3.0,-999.0,12,-99.99,,,0.00,538,weatherlink.com 1.10,2013-07-20 23:25:00,
2013-07-20 17:40:00,93.6,32.0,29.66,WNW,298,5.0,-999.0,11,-99.99,,,0.00,508,weatherlink.com 1.10,2013-07-20 23:40:00,
2013-07-20 17:55:00,93.2,31.0,29.66,North,5,0.0,-999.0,11,-99.99,,,0.00,93,weatherlink.com 1.10,2013-07-20 23:55:00,
2013-07-20 18:10:00,91.7,32.0,29.66,WNW,303,7.0,-999.0,12,-99.99,,,0.00,65,weatherlink.com 1.10,2013-07-21 00:10:00,
2013-07-20 18:25:00,90.5,31.0,29.65,SW,218,0.0,-999.0,12,-99.99,,,0.00,114,weatherlink.com 1.10,2013-07-21 00:25:00,
2013-07-20 18:40:00,90.3,31.0,29.65,West,281,5.0,-999.0,12,-99.99,,,0.00,338,weatherlink.com 1.10,2013-07-21 00:40:00,
2013-07-20 18:55:00,91.7,25.0,29.65,WNW,291,10.0,-999.0,9,-99.99,,,0.00,278,weatherlink.com 1.10,2013-07-21 00:55:00,
2013-07-20 19:25:00,85.5,36.0,29.66,NNW,340,5.0,-999.0,17,-99.99,,,0.00,30,weatherlink.com 1.10,2013-07-21 01:25:00,
2013-07-20 19:40:00,85.2,39.0,29.66,WNW,296,9.0,-999.0,19,-99.99,,,0.00,35,weatherlink.com 1.10,2013-07-21 01:40:00,
2013-07-20 19:55:00,84.1,36.0,29.66,North,350,11.0,-999.0,18,-99.99,,,0.00,25,weatherlink.com 1.10,2013-07-21 01:55:00,
2013-07-20 20:10:00,83.6,34.0,29.67,NNE,16,15.0,-999.0,17,-99.99,,,0.00,21,weatherlink.com 1.10,2013-07-21 02:10:00,
2013-07-20 20:25:00,82.9,35.0,29.67,NNE,22,13.0,-999.0,18,-99.99,,,0.00,16,weatherlink.com 1.10,2013-07-21 02:25:00,
2013-07-20 20:40:00,81.8,36.0,29.67,NNE,22,11.0,-999.0,19,-99.99,,,0.00,9,weatherlink.com 1.10,2013-07-21 02:40:00,
2013-07-20 20:55:00,80.0,37.0,29.68,NNE,32,5.0,-999.0,21,-99.99,,,0.00,0,weatherlink.com 1.10,2013-07-21 02:55:00,
2013-07-20 21:10:00,78.2,36.0,29.69,NE,38,5.0,-999.0,22,-99.99,,,0.00,0,weatherlink.com 1.10,2013-07-21 03:10:00,
2013-07-20 21:25:00,77.1,35.0,29.70,NE,49,6.0,-999.0,22,-99.99,,,0.00,0,weatherlink.com 1.10,2013-07-21 03:25:00,
2013-07-20 21:40:00,76.3,36.0,29.71,NE,42,9.0,-999.0,23,-99.99,,,0.00,0,weatherlink.com 1.10,2013-07-21 03:40:00,
2013-07-20 21:55:00,76.2,36.0,29.72,NE,34,8.0,-999.0,23,-99.99,,,0.00,0,weatherlink.com 1.10,2013-07-21 03:55:00,
2013-07-20 22:10:00,74.6,35.0,29.72,NE,46,7.0,-999.0,24,-99.99,,,0.00,0,weatherlink.com 1.10,2013-07-21 04:10:00,
2013-07-20 22:25:00,74.4,36.0,29.73,ENE,63,4.0,-999.0,25,-99.99,,,0.00,0,weatherlink.com 1.10,2013-07-21 04:25:00,
2013-07-20 22:40:00,74.6,36.0,29.74,NNE,26,4.0,-999.0,25,-99.99,,,0.00,0,weatherlink.com 1.10,2013-07-21 04:40:00,
2013-07-20 22:55:00,74.1,36.0,29.74,NNE,23,8.0,-999.0,25,-99.99,,,0.00,0,weatherlink.com 1.10,2013-07-21 04:55:00,
2013-07-20 23:10:00,74.1,36.0,29.74,North,355,6.0,-999.0,25,-99.99,,,0.00,0,weatherlink.com 1.10,2013-07-21 05:10:00,
2013-07-20 23:25:00,72.9,37.0,29.75,ENE,63,5.0,-999.0,27,-99.99,,,0.00,0,weatherlink.com 1.10,2013-07-21 05:25:00,
2013-07-20 23:40:00,73.6,36.0,29.75,NE,52,7.0,-999.0,25,-99.99,,,0.00,0,weatherlink.com 1.10,2013-07-21 05:40:00,
2013-07-20 23:55:00,72.5,36.0,29.76,ENE,77,0.0,-999.0,26,-99.99,,,0.00,0,weatherlink.com 1.10,2013-07-21 05:55:00,